Terminal Aerodrome Forecast
Issued by NWS Aberdeen, SD

Home | Current Version | Previous Version | Text Only | Print | Product List | Glossary On
Versions: 1 2 3 4 5 6 7 8 9 10 11 12 13 14 15 16 17 18 19 20 21 22 23 24 25 26 27 28 29 30 31 32 33 34 35 36 37 38 39 40 41 42 43 44 45 46 47
976
FTUS43 KABR 102231 AAD
TAFABR
TAF AMD
KABR 102231Z 1023/1118 07012KT 1SM -SN BKN029 OVC050
      TEMPO 1023/1101 3SM -SN
     FM110200 08011KT 1SM -SN OVC010
     FM110500 07010KT 3/4SM -SN OVC008
     FM111200 04007KT P6SM OVC015=

USA.gov is the U.S. government's official web portal to all federal, state and local government web resources and services.